sensor_id;sensor_type;location;lat;lon;timestamp;pressure;altitude;pressure_sealevel;temperature;humidity
12897;BME280;6516;35.028;32.372;2023-04-30T06:43:38;99721.41;;;21.38;51.91
12897;BME280;6516;35.028;32.372;2023-04-30T06:46:08;99727.66;;;21.64;54.38
12897;BME280;6516;35.028;32.372;2023-04-30T06:48:36;99733.47;;;21.83;53.55
12897;BME280;6516;35.028;32.372;2023-04-30T06:51:03;99734.72;;;21.52;53.46
12897;BME280;6516;35.028;32.372;2023-04-30T06:53:31;99733.25;;;21.98;52.98
12897;BME280;6516;35.028;32.372;2023-04-30T06:55:59;99736.56;;;22.14;52.25
12897;BME280;6516;35.028;32.372;2023-04-30T06:58:28;99738.84;;;21.95;52.36
12897;BME280;6516;35.028;32.372;2023-04-30T07:00:57;99732.09;;;21.77;53.04
12897;BME280;6516;35.028;32.372;2023-04-30T07:03:28;99738.31;;;21.90;52.63
12897;BME280;6516;35.028;32.372;2023-04-30T07:05:57;99737.34;;;22.04;52.34
12897;BME280;6516;35.028;32.372;2023-04-30T07:08:24;99744.38;;;22.30;51.71
12897;BME280;6516;35.028;32.372;2023-04-30T07:10:52;99742.53;;;22.30;50.95
12897;BME280;6516;35.028;32.372;2023-04-30T07:13:20;99740.63;;;22.32;51.35
12897;BME280;6516;35.028;32.372;2023-04-30T07:15:48;99735.19;;;22.09;50.34
12897;BME280;6516;35.028;32.372;2023-04-30T07:18:17;99746.44;;;22.26;50.40
12897;BME280;6516;35.028;32.372;2023-04-30T07:20:45;99752.94;;;22.35;51.16
12897;BME280;6516;35.028;32.372;2023-04-30T07:23:13;99754.09;;;22.43;50.35
12897;BME280;6516;35.028;32.372;2023-04-30T07:25:41;99760.44;;;22.42;50.54
12897;BME280;6516;35.028;32.372;2023-04-30T07:28:08;99752.91;;;22.60;49.88
12897;BME280;6516;35.028;32.372;2023-04-30T07:30:36;99752.63;;;22.75;49.95
12897;BME280;6516;35.028;32.372;2023-04-30T07:33:04;99767.53;;;22.92;49.88
12897;BME280;6516;35.028;32.372;2023-04-30T07:35:34;99761.34;;;23.02;50.18
12897;BME280;6516;35.028;32.372;2023-04-30T07:38:02;99765.19;;;23.11;49.76
12897;BME280;6516;35.028;32.372;2023-04-30T07:40:30;99761.03;;;23.30;49.91
12897;BME280;6516;35.028;32.372;2023-04-30T07:42:58;99764.47;;;22.73;49.73
12897;BME280;6516;35.028;32.372;2023-04-30T07:45:26;99762.53;;;22.75;50.89
12897;BME280;6516;35.028;32.372;2023-04-30T07:47:54;99767.69;;;23.01;49.46
12897;BME280;6516;35.028;32.372;2023-04-30T07:50:21;99770.53;;;22.87;47.62
12897;BME280;6516;35.028;32.372;2023-04-30T07:52:51;99772.50;;;22.24;49.42
12897;BME280;6516;35.028;32.372;2023-04-30T07:55:19;99759.41;;;22.07;50.30
12897;BME280;6516;35.028;32.372;2023-04-30T07:57:47;99759.91;;;22.37;51.66
12897;BME280;6516;35.028;32.372;2023-04-30T08:00:14;99760.38;;;22.80;49.64
12897;BME280;6516;35.028;32.372;2023-04-30T08:02:42;99768.97;;;23.08;49.35
12897;BME280;6516;35.028;32.372;2023-04-30T08:05:12;99767.63;;;23.14;47.96
12897;BME280;6516;35.028;32.372;2023-04-30T08:07:40;99753.97;;;23.40;47.90
12897;BME280;6516;35.028;32.372;2023-04-30T08:10:11;99762.78;;;22.95;47.86
12897;BME280;6516;35.028;32.372;2023-04-30T08:12:39;99755.53;;;22.85;49.46
12897;BME280;6516;35.028;32.372;2023-04-30T08:15:07;99755.00;;;23.27;49.23
12897;BME280;6516;35.028;32.372;2023-04-30T08:17:35;99759.34;;;23.40;48.37
12897;BME280;6516;35.028;32.372;2023-04-30T08:20:03;99754.50;;;23.22;48.31
12897;BME280;6516;35.028;32.372;2023-04-30T08:22:32;99748.41;;;23.54;48.18
12897;BME280;6516;35.028;32.372;2023-04-30T08:25:00;99747.81;;;23.62;48.39
12897;BME280;6516;35.028;32.372;2023-04-30T08:27:31;99766.13;;;23.10;46.79
12897;BME280;6516;35.028;32.372;2023-04-30T08:29:59;99761.84;;;23.07;45.97
12897;BME280;6516;35.028;32.372;2023-04-30T08:32:26;99752.00;;;23.31;46.02
12897;BME280;6516;35.028;32.372;2023-04-30T08:34:55;99752.28;;;23.50;47.07
12897;BME280;6516;35.028;32.372;2023-04-30T08:37:23;99752.81;;;23.21;47.85
12897;BME280;6516;35.028;32.372;2023-04-30T08:39:50;99752.53;;;23.47;48.52
12897;BME280;6516;35.028;32.372;2023-04-30T08:42:20;99751.09;;;23.54;43.77
12897;BME280;6516;35.028;32.372;2023-04-30T08:44:53;99761.25;;;23.62;46.34
12897;BME280;6516;35.028;32.372;2023-04-30T08:47:22;99752.66;;;23.91;46.04
12897;BME280;6516;35.028;32.372;2023-04-30T08:49:53;99765.34;;;23.89;46.38
12897;BME280;6516;35.028;32.372;2023-04-30T08:52:21;99753.66;;;23.21;46.74
12897;BME280;6516;35.028;32.372;2023-04-30T08:54:49;99765.50;;;23.06;49.23
12897;BME280;6516;35.028;32.372;2023-04-30T08:57:18;99755.16;;;23.60;45.63
12897;BME280;6516;35.028;32.372;2023-04-30T08:59:46;99759.47;;;23.39;45.77
12897;BME280;6516;35.028;32.372;2023-04-30T09:02:15;99760.56;;;23.36;48.26
12897;BME280;6516;35.028;32.372;2023-04-30T09:04:44;99762.03;;;23.40;47.69
12897;BME280;6516;35.028;32.372;2023-04-30T09:07:12;99765.38;;;23.55;45.78
12897;BME280;6516;35.028;32.372;2023-04-30T09:09:40;99772.16;;;23.71;46.72
12897;BME280;6516;35.028;32.372;2023-04-30T09:12:13;99761.63;;;23.79;45.61
12897;BME280;6516;35.028;32.372;2023-04-30T09:14:57;99762.47;;;23.23;46.44
12897;BME280;6516;35.028;32.372;2023-04-30T09:17:27;99760.84;;;23.55;47.30
12897;BME280;6516;35.028;32.372;2023-04-30T09:20:05;99757.84;;;23.60;47.10
12897;BME280;6516;35.028;32.372;2023-04-30T09:22:35;99752.19;;;24.08;46.06
12897;BME280;6516;35.028;32.372;2023-04-30T09:25:04;99761.00;;;24.21;44.58
12897;BME280;6516;35.028;32.372;2023-04-30T09:27:32;99760.97;;;24.10;44.77
12897;BME280;6516;35.028;32.372;2023-04-30T09:30:00;99765.72;;;23.96;46.68
12897;BME280;6516;35.028;32.372;2023-04-30T09:32:30;99761.59;;;23.57;46.12
12897;BME280;6516;35.028;32.372;2023-04-30T09:34:57;99759.63;;;24.05;46.12
12897;BME280;6516;35.028;32.372;2023-04-30T09:37:35;99766.47;;;23.52;46.28
12897;BME280;6516;35.028;32.372;2023-04-30T09:40:03;99760.44;;;23.83;44.58
12897;BME280;6516;35.028;32.372;2023-04-30T09:42:32;99754.25;;;23.94;45.06
12897;BME280;6516;35.028;32.372;2023-04-30T09:45:00;99754.78;;;24.10;45.61
12897;BME280;6516;35.028;32.372;2023-04-30T09:47:32;99763.81;;;23.63;45.37
12897;BME280;6516;35.028;32.372;2023-04-30T09:50:00;99758.34;;;23.30;46.96
12897;BME280;6516;35.028;32.372;2023-04-30T09:52:28;99768.69;;;23.58;47.29
12897;BME280;6516;35.028;32.372;2023-04-30T09:54:56;99768.81;;;23.57;46.16
12897;BME280;6516;35.028;32.372;2023-04-30T09:57:26;99747.16;;;24.04;46.81
12897;BME280;6516;35.028;32.372;2023-04-30T09:59:57;99759.16;;;23.65;46.78
12897;BME280;6516;35.028;32.372;2023-04-30T10:02:26;99767.16;;;23.78;46.20
12897;BME280;6516;35.028;32.372;2023-04-30T10:04:57;99775.91;;;23.34;46.33
12897;BME280;6516;35.028;32.372;2023-04-30T10:07:32;99773.03;;;23.48;46.33
12897;BME280;6516;35.028;32.372;2023-04-30T10:10:07;99786.53;;;23.25;45.94
12897;BME280;6516;35.028;32.372;2023-04-30T10:12:38;99770.94;;;23.41;46.08
12897;BME280;6516;35.028;32.372;2023-04-30T10:15:13;99782.16;;;23.35;45.32
12897;BME280;6516;35.028;32.372;2023-04-30T10:17:43;99784.84;;;23.35;45.66
12897;BME280;6516;35.028;32.372;2023-04-30T10:20:16;99779.97;;;23.74;45.88
12897;BME280;6516;35.028;32.372;2023-04-30T10:22:46;99776.50;;;23.61;42.33
12897;BME280;6516;35.028;32.372;2023-04-30T10:25:14;99781.81;;;23.85;45.15
12897;BME280;6516;35.028;32.372;2023-04-30T10:27:43;99791.78;;;23.95;46.42
12897;BME280;6516;35.028;32.372;2023-04-30T10:30:12;99799.16;;;23.70;45.45
12897;BME280;6516;35.028;32.372;2023-04-30T10:32:47;99791.91;;;23.59;45.54
12897;BME280;6516;35.028;32.372;2023-04-30T10:35:23;99797.38;;;23.47;42.85
12897;BME280;6516;35.028;32.372;2023-04-30T10:37:56;99801.34;;;22.94;45.15
12897;BME280;6516;35.028;32.372;2023-04-30T10:40:28;99784.06;;;22.62;47.17
12897;BME280;6516;35.028;32.372;2023-04-30T10:43:03;99793.06;;;22.97;48.64
12897;BME280;6516;35.028;32.372;2023-04-30T10:45:34;99797.22;;;23.01;43.15
12897;BME280;6516;35.028;32.372;2023-04-30T10:48:03;99798.91;;;23.15;46.14
12897;BME280;6516;35.028;32.372;2023-04-30T10:50:38;99792.31;;;23.42;44.34
12897;BME280;6516;35.028;32.372;2023-04-30T10:53:12;99805.25;;;23.37;44.22
12897;BME280;6516;35.028;32.372;2023-04-30T10:55:45;99798.91;;;23.38;44.13
12897;BME280;6516;35.028;32.372;2023-04-30T10:58:29;99805.06;;;23.04;45.97
12897;BME280;6516;35.028;32.372;2023-04-30T11:01:00;99802.97;;;22.61;45.74
12897;BME280;6516;35.028;32.372;2023-04-30T11:03:29;99812.19;;;22.57;46.57
12897;BME280;6516;35.028;32.372;2023-04-30T11:06:00;99808.59;;;22.81;44.42
12897;BME280;6516;35.028;32.372;2023-04-30T11:08:35;99808.13;;;22.51;44.44
12897;BME280;6516;35.028;32.372;2023-04-30T11:11:07;99812.97;;;22.46;43.22
12897;BME280;6516;35.028;32.372;2023-04-30T11:13:39;99810.16;;;22.48;42.29
12897;BME280;6516;35.028;32.372;2023-04-30T11:16:08;99795.25;;;22.31;42.07
12897;BME280;6516;35.028;32.372;2023-04-30T11:18:41;99803.47;;;22.66;45.55
12897;BME280;6516;35.028;32.372;2023-04-30T11:21:12;99797.59;;;22.84;45.81
12897;BME280;6516;35.028;32.372;2023-04-30T11:23:43;99794.06;;;23.07;43.85
12897;BME280;6516;35.028;32.372;2023-04-30T11:26:10;99795.09;;;23.30;43.45
12897;BME280;6516;35.028;32.372;2023-04-30T11:28:49;99805.84;;;22.58;43.30
12897;BME280;6516;35.028;32.372;2023-04-30T11:31:19;99795.16;;;22.45;46.48
12897;BME280;6516;35.028;32.372;2023-04-30T11:33:48;99799.75;;;22.92;46.71
12897;BME280;6516;35.028;32.372;2023-04-30T11:36:18;99798.53;;;22.96;44.62
12897;BME280;6516;35.028;32.372;2023-04-30T11:38:47;99803.84;;;22.85;45.05
12897;BME280;6516;35.028;32.372;2023-04-30T11:41:15;99794.66;;;23.00;45.36
12897;BME280;6516;35.028;32.372;2023-04-30T11:43:42;99785.00;;;22.97;41.52
12897;BME280;6516;35.028;32.372;2023-04-30T11:46:11;99790.47;;;22.72;44.60
12897;BME280;6516;35.028;32.372;2023-04-30T11:48:40;99787.47;;;22.64;46.85
12897;BME280;6516;35.028;32.372;2023-04-30T11:51:16;99801.16;;;22.49;47.56
12897;BME280;6516;35.028;32.372;2023-04-30T11:53:47;99798.56;;;22.47;46.83
12897;BME280;6516;35.028;32.372;2023-04-30T11:56:19;99789.53;;;22.61;41.30
12897;BME280;6516;35.028;32.372;2023-04-30T11:58:50;99795.66;;;22.50;46.26
12897;BME280;6516;35.028;32.372;2023-04-30T12:01:19;99784.94;;;22.86;47.85
12897;BME280;6516;35.028;32.372;2023-04-30T12:03:48;99785.78;;;22.38;44.17
12897;BME280;6516;35.028;32.372;2023-04-30T12:06:22;99790.94;;;22.54;46.36
12897;BME280;6516;35.028;32.372;2023-04-30T12:08:52;99793.09;;;22.49;46.57
12897;BME280;6516;35.028;32.372;2023-04-30T12:11:21;99789.09;;;22.67;47.24
12897;BME280;6516;35.028;32.372;2023-04-30T12:13:51;99790.81;;;22.55;47.76
12897;BME280;6516;35.028;32.372;2023-04-30T12:16:19;99799.53;;;22.46;48.33
12897;BME280;6516;35.028;32.372;2023-04-30T12:18:47;99800.69;;;22.42;48.86
12897;BME280;6516;35.028;32.372;2023-04-30T12:21:16;99791.06;;;22.02;50.20
12897;BME280;6516;35.028;32.372;2023-04-30T12:23:46;99788.66;;;21.60;51.02
12897;BME280;6516;35.028;32.372;2023-04-30T12:26:14;99793.13;;;21.86;52.21
12897;BME280;6516;35.028;32.372;2023-04-30T12:28:42;99787.72;;;22.11;50.67
12897;BME280;6516;35.028;32.372;2023-04-30T12:31:12;99787.53;;;22.02;49.73
12897;BME280;6516;35.028;32.372;2023-04-30T12:33:40;99789.88;;;22.06;49.82
12897;BME280;6516;35.028;32.372;2023-04-30T12:36:09;99794.16;;;22.21;49.30
12897;BME280;6516;35.028;32.372;2023-04-30T12:38:38;99786.00;;;22.35;50.00
12897;BME280;6516;35.028;32.372;2023-04-30T12:41:11;99790.31;;;22.50;49.39
12897;BME280;6516;35.028;32.372;2023-04-30T12:43:42;99786.66;;;22.26;49.38
12897;BME280;6516;35.028;32.372;2023-04-30T12:46:09;99789.34;;;22.26;51.78
12897;BME280;6516;35.028;32.372;2023-04-30T12:48:43;99787.09;;;21.83;49.72
12897;BME280;6516;35.028;32.372;2023-04-30T12:51:11;99781.31;;;22.01;49.49
12897;BME280;6516;35.028;32.372;2023-04-30T12:53:44;99781.75;;;22.08;51.06
12897;BME280;6516;35.028;32.372;2023-04-30T12:56:14;99778.09;;;21.84;51.69
12897;BME280;6516;35.028;32.372;2023-04-30T12:58:44;99781.22;;;21.90;52.42
12897;BME280;6516;35.028;32.372;2023-04-30T13:01:16;99781.84;;;21.42;51.68
12897;BME280;6516;35.028;32.372;2023-04-30T13:03:45;99784.94;;;21.75;53.76
12897;BME280;6516;35.028;32.372;2023-04-30T13:06:13;99782.25;;;21.75;52.72
12897;BME280;6516;35.028;32.372;2023-04-30T13:08:40;99771.00;;;21.83;51.77
12897;BME280;6516;35.028;32.372;2023-04-30T13:11:08;99773.09;;;21.53;52.58
12897;BME280;6516;35.028;32.372;2023-04-30T13:13:38;99774.72;;;21.68;53.77
12897;BME280;6516;35.028;32.372;2023-04-30T13:16:06;99773.38;;;21.75;51.19
12897;BME280;6516;35.028;32.372;2023-04-30T13:18:34;99771.44;;;21.89;51.30
12897;BME280;6516;35.028;32.372;2023-04-30T13:21:02;99775.44;;;21.45;52.25
12897;BME280;6516;35.028;32.372;2023-04-30T13:23:30;99765.31;;;21.23;50.84
12897;BME280;6516;35.028;32.372;2023-04-30T13:25:58;99768.13;;;20.81;48.42
12897;BME280;6516;35.028;32.372;2023-04-30T13:28:25;99776.91;;;20.83;51.04
12897;BME280;6516;35.028;32.372;2023-04-30T13:30:55;99780.28;;;20.73;53.92
12897;BME280;6516;35.028;32.372;2023-04-30T13:33:22;99780.28;;;20.73;54.67
12897;BME280;6516;35.028;32.372;2023-04-30T13:35:50;99780.16;;;20.88;55.43
12897;BME280;6516;35.028;32.372;2023-04-30T13:38:18;99778.63;;;20.84;55.13
12897;BME280;6516;35.028;32.372;2023-04-30T13:40:46;99775.63;;;20.62;54.23
12897;BME280;6516;35.028;32.372;2023-04-30T13:43:15;99779.41;;;20.32;55.39
12897;BME280;6516;35.028;32.372;2023-04-30T13:45:43;99773.59;;;20.11;58.15
12897;BME280;6516;35.028;32.372;2023-04-30T13:48:12;99781.59;;;20.25;56.99
12897;BME280;6516;35.028;32.372;2023-04-30T13:50:40;99770.31;;;20.34;57.22
12897;BME280;6516;35.028;32.372;2023-04-30T13:53:07;99767.97;;;20.16;56.00
12897;BME280;6516;35.028;32.372;2023-04-30T13:55:35;99780.44;;;20.01;56.44
12897;BME280;6516;35.028;32.372;2023-04-30T13:58:03;99769.94;;;20.12;56.31
12897;BME280;6516;35.028;32.372;2023-04-30T14:00:31;99768.31;;;20.24;55.77
12897;BME280;6516;35.028;32.372;2023-04-30T14:02:59;99778.31;;;20.06;55.46
12897;BME280;6516;35.028;32.372;2023-04-30T14:05:28;99773.00;;;20.20;55.05
12897;BME280;6516;35.028;32.372;2023-04-30T14:07:56;99769.94;;;20.12;54.66
12897;BME280;6516;35.028;32.372;2023-04-30T14:10:23;99769.75;;;20.01;53.72
12897;BME280;6516;35.028;32.372;2023-04-30T14:12:51;99764.88;;;19.80;55.44
12897;BME280;6516;35.028;32.372;2023-04-30T14:15:19;99772.59;;;19.98;55.01
12897;BME280;6516;35.028;32.372;2023-04-30T14:17:47;99778.81;;;19.85;53.87
12897;BME280;6516;35.028;32.372;2023-04-30T14:20:15;99774.13;;;19.88;53.92
12897;BME280;6516;35.028;32.372;2023-04-30T14:22:44;99789.25;;;19.59;54.45
12897;BME280;6516;35.028;32.372;2023-04-30T14:25:12;99789.50;;;19.41;54.46
12897;BME280;6516;35.028;32.372;2023-04-30T14:27:39;99778.56;;;19.30;55.02
12897;BME280;6516;35.028;32.372;2023-04-30T14:30:08;99776.78;;;19.30;55.60
12897;BME280;6516;35.028;32.372;2023-04-30T14:32:36;99776.91;;;19.43;55.21
12897;BME280;6516;35.028;32.372;2023-04-30T14:35:05;99784.34;;;19.38;54.01
12897;BME280;6516;35.028;32.372;2023-04-30T14:37:34;99788.81;;;19.22;56.45
12897;BME280;6516;35.028;32.372;2023-04-30T14:40:04;99785.69;;;19.00;58.54
12897;BME280;6516;35.028;32.372;2023-04-30T14:42:32;99789.13;;;19.02;58.45
12897;BME280;6516;35.028;32.372;2023-04-30T14:45:00;99785.25;;;19.23;59.50
12897;BME280;6516;35.028;32.372;2023-04-30T14:47:29;99788.81;;;19.22;59.79
12897;BME280;6516;35.028;32.372;2023-04-30T14:49:57;99786.53;;;18.85;61.25
12897;BME280;6516;35.028;32.372;2023-04-30T14:52:26;99784.25;;;18.79;61.23
12897;BME280;6516;35.028;32.372;2023-04-30T14:54:54;99782.09;;;18.85;61.14
12897;BME280;6516;35.028;32.372;2023-04-30T14:57:23;99778.53;;;18.85;61.39
12897;BME280;6516;35.028;32.372;2023-04-30T14:59:52;99789.66;;;18.62;61.90
12897;BME280;6516;35.028;32.372;2023-04-30T15:02:22;99791.78;;;18.40;62.68
12897;BME280;6516;35.028;32.372;2023-04-30T15:04:50;99785.84;;;18.35;63.32
12897;BME280;6516;35.028;32.372;2023-04-30T15:07:19;99789.41;;;18.35;62.72
12897;BME280;6516;35.028;32.372;2023-04-30T15:09:47;99798.94;;;18.39;63.13
12897;BME280;6516;35.028;32.372;2023-04-30T15:12:15;99793.00;;;18.34;63.30
12897;BME280;6516;35.028;32.372;2023-04-30T15:14:44;99797.19;;;18.23;63.81
12897;BME280;6516;35.028;32.372;2023-04-30T15:17:12;99795.63;;;18.19;63.50
12897;BME280;6516;35.028;32.372;2023-04-30T15:19:39;99804.22;;;18.24;63.62
12897;BME280;6516;35.028;32.372;2023-04-30T15:22:08;99792.41;;;18.12;64.43
12897;BME280;6516;35.028;32.372;2023-04-30T15:24:35;99800.44;;;17.95;63.42
12897;BME280;6516;35.028;32.372;2023-04-30T15:27:03;99791.47;;;17.81;63.22
12897;BME280;6516;35.028;32.372;2023-04-30T15:29:31;99796.50;;;17.70;63.37
12897;BME280;6516;35.028;32.372;2023-04-30T15:32:00;99799.16;;;17.70;64.15
12897;BME280;6516;35.028;32.372;2023-04-30T15:34:28;99794.16;;;17.64;65.53
12897;BME280;6516;35.028;32.372;2023-04-30T15:36:56;99802.03;;;17.65;65.97
12897;BME280;6516;35.028;32.372;2023-04-30T15:39:24;99807.00;;;17.56;65.12
12897;BME280;6516;35.028;32.372;2023-04-30T15:41:52;99803.47;;;17.55;65.98
12897;BME280;6516;35.028;32.372;2023-04-30T15:44:20;99807.94;;;17.55;65.29
12897;BME280;6516;35.028;32.372;2023-04-30T15:46:48;99813.75;;;17.46;66.70
12897;BME280;6516;35.028;32.372;2023-04-30T15:49:17;99810.66;;;17.36;66.88
12897;BME280;6516;35.028;32.372;2023-04-30T15:51:45;99810.72;;;17.35;66.99
12897;BME280;6516;35.028;32.372;2023-04-30T15:54:13;99815.88;;;17.21;67.00
12897;BME280;6516;35.028;32.372;2023-04-30T15:56:41;99823.09;;;17.19;67.73
12897;BME280;6516;35.028;32.372;2023-04-30T15:59:09;99818.03;;;17.13;67.78
12897;BME280;6516;35.028;32.372;2023-04-30T16:01:40;99819.22;;;17.07;67.76
12897;BME280;6516;35.028;32.372;2023-04-30T16:04:08;99823.81;;;17.04;68.32
12897;BME280;6516;35.028;32.372;2023-04-30T16:06:38;99833.06;;;16.97;69.05
12897;BME280;6516;35.028;32.372;2023-04-30T16:09:06;99834.28;;;16.90;68.82
12897;BME280;6516;35.028;32.372;2023-04-30T16:11:34;99832.69;;;16.86;69.18
12897;BME280;6516;35.028;32.372;2023-04-30T16:14:02;99844.34;;;16.83;69.78
12897;BME280;6516;35.028;32.372;2023-04-30T16:16:30;99833.00;;;16.80;70.07
12897;BME280;6516;35.028;32.372;2023-04-30T16:18:57;99836.22;;;16.68;69.57
12897;BME280;6516;35.028;32.372;2023-04-30T16:21:26;99847.22;;;16.60;69.71
12897;BME280;6516;35.028;32.372;2023-04-30T16:23:55;99836.97;;;16.53;69.26
12897;BME280;6516;35.028;32.372;2023-04-30T16:26:23;99850.59;;;16.45;69.35
12897;BME280;6516;35.028;32.372;2023-04-30T16:28:51;99855.91;;;16.45;68.95
12897;BME280;6516;35.028;32.372;2023-04-30T16:31:19;99856.25;;;16.38;68.89
12897;BME280;6516;35.028;32.372;2023-04-30T16:33:47;99853.84;;;16.32;69.39
12897;BME280;6516;35.028;32.372;2023-04-30T16:36:15;99862.09;;;16.26;70.43
12897;BME280;6516;35.028;32.372;2023-04-30T16:38:43;99861.47;;;16.21;70.81
12897;BME280;6516;35.028;32.372;2023-04-30T16:41:13;99873.50;;;16.09;71.39
12897;BME280;6516;35.028;32.372;2023-04-30T16:43:42;99867.66;;;16.01;71.94
12897;BME280;6516;35.028;32.372;2023-04-30T16:46:10;99869.66;;;15.96;72.00
12897;BME280;6516;35.028;32.372;2023-04-30T16:48:38;99876.91;;;15.93;72.24
12897;BME280;6516;35.028;32.372;2023-04-30T16:51:06;99877.03;;;15.90;72.32
12897;BME280;6516;35.028;32.372;2023-04-30T16:53:34;99880.88;;;15.83;72.55
12897;BME280;6516;35.028;32.372;2023-04-30T16:56:02;99880.13;;;15.79;72.65
12897;BME280;6516;35.028;32.372;2023-04-30T16:58:31;99883.28;;;15.69;73.17
12897;BME280;6516;35.028;32.372;2023-04-30T17:00:59;99884.34;;;15.65;73.35
12897;BME280;6516;35.028;32.372;2023-04-30T17:03:27;99893.41;;;15.59;73.55
12897;BME280;6516;35.028;32.372;2023-04-30T17:05:55;99887.44;;;15.54;73.67
12897;BME280;6516;35.028;32.372;2023-04-30T17:08:23;99892.69;;;15.56;73.99
12897;BME280;6516;35.028;32.372;2023-04-30T17:10:50;99894.78;;;15.48;74.39
12897;BME280;6516;35.028;32.372;2023-04-30T17:13:18;99903.06;;;15.40;75.26
12897;BME280;6516;35.028;32.372;2023-04-30T17:15:47;99906.81;;;15.35;75.78
12897;BME280;6516;35.028;32.372;2023-04-30T17:18:15;99907.03;;;15.29;76.16
12897;BME280;6516;35.028;32.372;2023-04-30T17:20:43;99909.75;;;15.27;75.96
12897;BME280;6516;35.028;32.372;2023-04-30T17:23:12;99915.13;;;15.26;76.54
12897;BME280;6516;35.028;32.372;2023-04-30T17:25:40;99919.91;;;15.16;76.76
12897;BME280;6516;35.028;32.372;2023-04-30T17:28:08;99922.88;;;15.09;77.25
12897;BME280;6516;35.028;32.372;2023-04-30T17:30:35;99928.31;;;15.06;77.35
12897;BME280;6516;35.028;32.372;2023-04-30T17:33:05;99932.13;;;14.99;77.82
12897;BME280;6516;35.028;32.372;2023-04-30T17:35:33;99935.94;;;14.92;78.42
12897;BME280;6516;35.028;32.372;2023-04-30T17:38:01;99936.13;;;14.87;78.32
12897;BME280;6516;35.028;32.372;2023-04-30T17:40:28;99941.72;;;14.80;78.84
12897;BME280;6516;35.028;32.372;2023-04-30T17:42:57;99952.41;;;14.77;78.85
12897;BME280;6516;35.028;32.372;2023-04-30T17:45:25;99951.84;;;14.69;78.98
12897;BME280;6516;35.028;32.372;2023-04-30T17:47:53;99953.75;;;14.65;78.94
12897;BME280;6516;35.028;32.372;2023-04-30T17:50:22;99952.06;;;14.63;79.57
12897;BME280;6516;35.028;32.372;2023-04-30T17:52:50;99957.50;;;14.60;79.53
12897;BME280;6516;35.028;32.372;2023-04-30T17:55:17;99955.88;;;14.56;79.46
12897;BME280;6516;35.028;32.372;2023-04-30T17:57:46;99963.19;;;14.49;79.62
12897;BME280;6516;35.028;32.372;2023-04-30T18:00:14;99967.72;;;14.46;79.67
12897;BME280;6516;35.028;32.372;2023-04-30T18:02:43;99966.00;;;14.45;79.66
12897;BME280;6516;35.028;32.372;2023-04-30T18:05:10;99975.03;;;14.39;79.94
12897;BME280;6516;35.028;32.372;2023-04-30T18:07:41;99977.06;;;14.33;80.33
12897;BME280;6516;35.028;32.372;2023-04-30T18:10:09;99974.59;;;14.27;80.68
12897;BME280;6516;35.028;32.372;2023-04-30T18:12:37;99977.38;;;14.24;80.46
12897;BME280;6516;35.028;32.372;2023-04-30T18:15:05;99986.28;;;14.21;80.63
12897;BME280;6516;35.028;32.372;2023-04-30T18:17:34;99984.69;;;14.16;80.80
12897;BME280;6516;35.028;32.372;2023-04-30T18:20:02;99988.34;;;14.12;81.18
12897;BME280;6516;35.028;32.372;2023-04-30T18:22:30;99998.94;;;14.12;81.31
12897;BME280;6516;35.028;32.372;2023-04-30T18:25:00;100000.66;;;14.13;81.18
12897;BME280;6516;35.028;32.372;2023-04-30T18:27:28;99997.97;;;14.14;81.23
12897;BME280;6516;35.028;32.372;2023-04-30T18:29:58;99997.97;;;14.14;81.04
12897;BME280;6516;35.028;32.372;2023-04-30T18:32:26;100008.38;;;14.20;80.69
12897;BME280;6516;35.028;32.372;2023-04-30T18:34:54;100008.47;;;14.17;80.88
12897;BME280;6516;35.028;32.372;2023-04-30T18:37:22;100006.59;;;14.21;80.77
12897;BME280;6516;35.028;32.372;2023-04-30T18:39:50;100013.63;;;14.22;80.72
12897;BME280;6516;35.028;32.372;2023-04-30T18:42:19;100011.91;;;14.21;80.82
12897;BME280;6516;35.028;32.372;2023-04-30T18:44:49;100011.91;;;14.21;80.83
12897;BME280;6516;35.028;32.372;2023-04-30T18:47:17;100023.47;;;14.17;81.27
12897;BME280;6516;35.028;32.372;2023-04-30T18:49:45;100013.19;;;14.08;81.06
12897;BME280;6516;35.028;32.372;2023-04-30T18:52:12;100012.09;;;13.89;82.05
12897;BME280;6516;35.028;32.372;2023-04-30T18:54:40;100010.75;;;13.76;82.12
12897;BME280;6516;35.028;32.372;2023-04-30T18:57:08;100021.72;;;13.64;82.96
12897;BME280;6516;35.028;32.372;2023-04-30T18:59:41;100018.28;;;13.62;83.01
12897;BME280;6516;35.028;32.372;2023-04-30T19:02:09;100025.47;;;13.58;83.10
12897;BME280;6516;35.028;32.372;2023-04-30T19:04:39;100020.78;;;13.39;84.17
12897;BME280;6516;35.028;32.372;2023-04-30T19:07:06;100023.84;;;13.25;84.71
12897;BME280;6516;35.028;32.372;2023-04-30T19:09:34;100028.69;;;13.11;85.35
12897;BME280;6516;35.028;32.372;2023-04-30T19:12:02;100023.81;;;12.98;86.24
12897;BME280;6516;35.028;32.372;2023-04-30T19:14:31;100028.28;;;12.94;86.43
12897;BME280;6516;35.028;32.372;2023-04-30T19:17:00;100030.31;;;12.86;86.82
12897;BME280;6516;35.028;32.372;2023-04-30T19:19:28;100024.78;;;12.94;86.67
12897;BME280;6516;35.028;32.372;2023-04-30T19:21:56;100035.16;;;13.01;86.00
12897;BME280;6516;35.028;32.372;2023-04-30T19:24:24;100038.63;;;13.03;85.74
12897;BME280;6516;35.028;32.372;2023-04-30T19:26:51;100032.84;;;12.89;86.12
12897;BME280;6516;35.028;32.372;2023-04-30T19:29:19;100037.56;;;12.78;86.63
12897;BME280;6516;35.028;32.372;2023-04-30T19:31:48;100042.09;;;12.75;86.78
12897;BME280;6516;35.028;32.372;2023-04-30T19:34:18;100036.06;;;12.70;86.89
12897;BME280;6516;35.028;32.372;2023-04-30T19:36:45;100023.38;;;12.82;86.72
12897;BME280;6516;35.028;32.372;2023-04-30T19:39:13;100026.66;;;12.90;86.04
12897;BME280;6516;35.028;32.372;2023-04-30T19:41:41;100023.09;;;12.91;85.74
12897;BME280;6516;35.028;32.372;2023-04-30T19:44:09;100016.47;;;12.77;85.84
12897;BME280;6516;35.028;32.372;2023-04-30T19:46:36;100027.03;;;12.77;86.15
12897;BME280;6516;35.028;32.372;2023-04-30T19:49:06;100021.81;;;12.75;86.16
12897;BME280;6516;35.028;32.372;2023-04-30T19:51:36;100023.91;;;12.64;86.70